Time;durP1;ratioP1;P1;durP2;ratioP2;P2;SDS_P1;SDS_P2;PMS_P1;PMS_P2;Temp;Humidity;BMP_temperature;BMP_pressure;BME280_temperature;BME280_humidity;BME280_pressure;Samples;Min_cycle;Max_cycle;Signal;HPM_P1;HPM_P2
2021/05/12 00:01:50;;;;;;;1.20;1.20;;;;;;;;;;5022156;28;20076;-53
2021/05/12 00:04:17;;;;;;;1.77;1.48;;;;;;;;;;5026236;28;20064;-54
2021/05/12 00:06:44;;;;;;;1.50;1.15;;;;;;;;;;5029059;28;20371;-53
2021/05/12 00:09:11;;;;;;;1.40;1.30;;;;;;;;;;5024506;28;20037;-54
2021/05/12 00:11:37;;;;;;;1.48;1.48;;;;;;;;;;5026605;28;20112;-54
2021/05/12 00:14:04;;;;;;;1.50;1.50;;;;;;;;;;5018226;28;20435;-54
2021/05/12 00:16:31;;;;;;;4.38;1.40;;;;;;;;;;5027892;28;20099;-52
2021/05/12 00:18:58;;;;;;;1.55;1.42;;;;;;;;;;5028277;28;20045;-52
2021/05/12 00:21:32;;;;;;;1.10;1.10;;;;;;;;;;5028756;28;20045;-52
2021/05/12 00:24:00;;;;;;;1.40;1.25;;;;;;;;;;5027786;28;20057;-53
2021/05/12 00:26:39;;;;;;;1.30;1.30;;;;;;;;;;5029771;28;20046;-53
2021/05/12 00:29:08;;;;;;;1.20;1.20;;;;;;;;;;5032141;28;20800;-53
2021/05/12 00:31:34;;;;;;;1.77;1.25;;;;;;;;;;5030293;28;20065;-54
2021/05/12 00:34:01;;;;;;;2.20;1.30;;;;;;;;;;5033354;28;20076;-54
2021/05/12 00:36:28;;;;;;;2.47;1.35;;;;;;;;;;5031676;28;20038;-54
2021/05/12 00:38:57;;;;;;;1.25;1.25;;;;;;;;;;5033288;28;20099;-54
2021/05/12 00:41:24;;;;;;;1.38;1.27;;;;;;;;;;5025803;28;20041;-54
2021/05/12 00:43:51;;;;;;;1.20;1.20;;;;;;;;;;5031614;28;20061;-54
2021/05/12 00:46:18;;;;;;;1.42;1.30;;;;;;;;;;5032886;28;20045;-53
2021/05/12 00:48:44;;;;;;;1.10;1.10;;;;;;;;;;5028220;28;20049;-54
2021/05/12 00:51:11;;;;;;;1.20;1.20;;;;;;;;;;5031360;28;20057;-54
2021/05/12 00:53:38;;;;;;;1.35;1.25;;;;;;;;;;5023226;28;20048;-54
2021/05/12 00:56:05;;;;;;;1.30;1.25;;;;;;;;;;5031531;28;20045;-52
2021/05/12 00:58:31;;;;;;;1.75;1.20;;;;;;;;;;5027561;28;20049;-53
2021/05/12 01:00:59;;;;;;;2.88;1.40;;;;;;;;;;5031092;28;20290;-54
2021/05/12 01:03:26;;;;;;;1.90;1.80;;;;;;;;;;5031505;28;20053;-53
2021/05/12 01:05:53;;;;;;;1.50;1.50;;;;;;;;;;5019792;28;20084;-53
2021/05/12 01:08:20;;;;;;;1.73;1.33;;;;;;;;;;5027675;28;20080;-53
2021/05/12 01:10:46;;;;;;;1.23;1.15;;;;;;;;;;5030992;28;20558;-54
2021/05/12 01:13:13;;;;;;;1.20;1.20;;;;;;;;;;5026962;28;20112;-53
2021/05/12 01:15:41;;;;;;;3.53;1.50;;;;;;;;;;5022349;28;20061;-54
2021/05/12 01:18:09;;;;;;;1.20;1.20;;;;;;;;;;5017983;28;20410;-54
2021/05/12 01:20:52;;;;;;;1.25;1.25;;;;;;;;;;5026891;28;20091;-53
2021/05/12 01:23:19;;;;;;;;;;;;;;;;;;5031712;28;20049;-54
2021/05/12 01:25:49;;;;;;;1.90;1.80;;;;;;;;;;5029525;28;19998;-54
2021/05/12 01:28:16;;;;;;;6.18;1.50;;;;;;;;;;5026879;28;20528;-54
2021/05/12 01:30:58;;;;;;;1.50;1.50;;;;;;;;;;5031297;28;20040;-52
2021/05/12 01:33:25;;;;;;;2.25;1.67;;;;;;;;;;5031231;28;20045;-53
2021/05/12 01:35:52;;;;;;;2.45;1.42;;;;;;;;;;5030996;28;20046;-53
2021/05/12 01:38:19;;;;;;;1.70;1.60;;;;;;;;;;5018091;28;20750;-54
2021/05/12 01:40:46;;;;;;;3.05;2.15;;;;;;;;;;5030924;28;20384;-53
2021/05/12 01:43:13;;;;;;;1.40;1.30;;;;;;;;;;5030779;28;20417;-54
2021/05/12 01:45:46;;;;;;;1.63;1.63;;;;;;;;;;5031248;28;20073;-53
2021/05/12 01:48:13;;;;;;;1.10;1.10;;;;;;;;;;5023516;28;20038;-53
2021/05/12 01:50:40;;;;;;;1.20;1.20;;;;;;;;;;5031165;28;20394;-53
2021/05/12 01:53:07;;;;;;;1.20;1.20;;;;;;;;;;5030333;28;20505;-53
2021/05/12 01:55:34;;;;;;;1.50;1.40;;;;;;;;;;5030810;28;20036;-53
2021/05/12 01:58:01;;;;;;;1.25;1.10;;;;;;;;;;5026555;28;20133;-53
2021/05/12 02:00:54;;;;;;;2.55;1.80;;;;;;;;;;5030436;28;20120;-54
2021/05/12 02:03:21;;;;;;;1.20;1.20;;;;;;;;;;5022756;28;20504;-54
2021/05/12 02:05:49;;;;;;;1.65;1.65;;;;;;;;;;5028708;28;20073;-55
2021/05/12 02:08:22;;;;;;;1.20;1.20;;;;;;;;;;5026986;28;20557;-54
2021/05/12 02:10:54;;;;;;;1.50;1.50;;;;;;;;;;5023270;28;20042;-54
2021/05/12 02:13:23;;;;;;;1.40;1.40;;;;;;;;;;5024895;28;20124;-54
2021/05/12 02:15:50;;;;;;;1.38;1.27;;;;;;;;;;5028131;28;20053;-52
2021/05/12 02:18:25;;;;;;;1.55;1.50;;;;;;;;;;5028202;28;20049;-54
2021/05/12 02:20:52;;;;;;;2.83;2.08;;;;;;;;;;5026458;28;20107;-54
2021/05/12 02:23:22;;;;;;;1.52;1.52;;;;;;;;;;5027732;28;20073;-55
2021/05/12 02:25:49;;;;;;;1.75;1.65;;;;;;;;;;5027948;28;20121;-55
2021/05/12 02:28:16;;;;;;;2.00;1.80;;;;;;;;;;5025888;28;20077;-54
2021/05/12 02:30:43;;;;;;;2.50;1.30;;;;;;;;;;5029703;28;20049;-54
2021/05/12 02:33:10;;;;;;;1.67;1.38;;;;;;;;;;5026153;28;20104;-53
2021/05/12 02:35:38;;;;;;;1.40;1.30;;;;;;;;;;5015448;28;20084;-54
2021/05/12 02:38:05;;;;;;;1.30;1.30;;;;;;;;;;5019472;28;20045;-53
2021/05/12 02:40:32;;;;;;;1.48;1.38;;;;;;;;;;5026208;28;20041;-54
2021/05/12 02:42:59;;;;;;;1.55;1.55;;;;;;;;;;5030457;28;20120;-53
2021/05/12 02:45:27;;;;;;;1.65;1.30;;;;;;;;;;5028484;28;20037;-54
2021/05/12 02:48:00;;;;;;;2.17;1.45;;;;;;;;;;5024694;28;20072;-54
2021/05/12 02:50:26;;;;;;;;;;;;;;;;;;5030210;28;20053;-52
2021/05/12 02:52:53;;;;;;;3.28;1.42;;;;;;;;;;5028045;28;19947;-54
2021/05/12 02:55:24;;;;;;;1.70;1.60;;;;;;;;;;5028467;28;20532;-54
2021/05/12 02:57:50;;;;;;;1.42;1.42;;;;;;;;;;5028891;28;20103;-53
2021/05/12 03:00:19;;;;;;;1.60;1.50;;;;;;;;;;5017760;28;20056;-54
2021/05/12 03:02:45;;;;;;;2.15;2.05;;;;;;;;;;5029565;28;20049;-54
2021/05/12 03:05:12;;;;;;;3.53;1.30;;;;;;;;;;5024961;28;20077;-54
2021/05/12 03:07:39;;;;;;;2.25;2.15;;;;;;;;;;5029254;28;20046;-54
2021/05/12 03:10:07;;;;;;;1.83;1.67;;;;;;;;;;5024255;28;20053;-54
2021/05/12 03:12:34;;;;;;;1.60;1.50;;;;;;;;;;5023305;28;20099;-54
2021/05/12 03:15:01;;;;;;;2.72;1.55;;;;;;;;;;5022240;28;20140;-54
2021/05/12 03:17:27;;;;;;;1.60;1.60;;;;;;;;;;5025803;28;20045;-54
2021/05/12 03:19:54;;;;;;;1.40;1.40;;;;;;;;;;5030881;28;20072;-53
2021/05/12 03:22:21;;;;;;;1.40;1.40;;;;;;;;;;5030307;28;20045;-53
2021/05/12 03:24:47;;;;;;;1.63;1.60;;;;;;;;;;5028508;28;20041;-53
2021/05/12 03:27:14;;;;;;;4.00;2.20;;;;;;;;;;5026211;28;20096;-54
2021/05/12 03:29:41;;;;;;;2.28;1.60;;;;;;;;;;5025937;28;20174;-53
2021/05/12 03:32:08;;;;;;;3.15;1.70;;;;;;;;;;5029710;28;20092;-54
2021/05/12 03:34:34;;;;;;;2.38;2.28;;;;;;;;;;5029876;28;20071;-54
2021/05/12 03:37:01;;;;;;;1.73;1.67;;;;;;;;;;5023061;28;20045;-54
2021/05/12 03:39:28;;;;;;;3.55;1.50;;;;;;;;;;5030731;28;20060;-53
2021/05/12 03:41:55;;;;;;;2.42;2.22;;;;;;;;;;5026417;28;20073;-53
2021/05/12 03:44:22;;;;;;;1.88;1.73;;;;;;;;;;5026158;28;20395;-52
2021/05/12 03:46:48;;;;;;;2.08;1.95;;;;;;;;;;5029723;28;20666;-53
2021/05/12 03:49:15;;;;;;;4.15;1.67;;;;;;;;;;5028330;28;20502;-53
2021/05/12 03:51:42;;;;;;;1.80;1.80;;;;;;;;;;5030370;28;20045;-53
2021/05/12 03:54:15;;;;;;;3.35;1.70;;;;;;;;;;5029114;28;20048;-54
2021/05/12 03:56:42;;;;;;;1.77;1.67;;;;;;;;;;5028421;28;20065;-52
2021/05/12 03:59:09;;;;;;;1.80;1.70;;;;;;;;;;5029903;28;20037;-53
2021/05/12 04:01:35;;;;;;;1.98;1.73;;;;;;;;;;5028057;28;20069;-54
2021/05/12 04:04:06;;;;;;;2.50;2.30;;;;;;;;;;5028282;28;20049;-53
2021/05/12 04:06:32;;;;;;;3.05;2.15;;;;;;;;;;5033047;28;20041;-53
2021/05/12 04:09:02;;;;;;;2.38;2.25;;;;;;;;;;5032778;28;20064;-53
2021/05/12 04:11:29;;;;;;;4.38;2.75;;;;;;;;;;5032751;28;20107;-52
2021/05/12 04:13:56;;;;;;;2.55;2.30;;;;;;;;;;5031904;28;20041;-53
2021/05/12 04:16:22;;;;;;;3.83;2.58;;;;;;;;;;5032602;28;20084;-53
2021/05/12 04:18:49;;;;;;;3.08;2.58;;;;;;;;;;5032807;28;20083;-53
2021/05/12 04:21:16;;;;;;;3.13;3.00;;;;;;;;;;5030782;28;20449;-53
2021/05/12 04:23:43;;;;;;;2.92;2.83;;;;;;;;;;5033981;28;20428;-54
2021/05/12 04:26:09;;;;;;;3.17;3.08;;;;;;;;;;5031232;28;20053;-54
2021/05/12 04:28:36;;;;;;;3.15;2.45;;;;;;;;;;5032965;28;20116;-54
2021/05/12 04:31:03;;;;;;;2.88;2.65;;;;;;;;;;5024393;28;20064;-53
2021/05/12 04:33:30;;;;;;;2.42;2.25;;;;;;;;;;5021212;28;20060;-55
2021/05/12 04:35:56;;;;;;;2.45;2.35;;;;;;;;;;5032569;28;20045;-53
2021/05/12 04:38:23;;;;;;;2.50;2.35;;;;;;;;;;5027889;28;20143;-53
2021/05/12 04:40:50;;;;;;;2.58;2.47;;;;;;;;;;5023359;28;20033;-53
2021/05/12 04:43:17;;;;;;;3.90;2.90;;;;;;;;;;5033183;28;20037;-52
2021/05/12 04:45:44;;;;;;;2.42;2.20;;;;;;;;;;5031406;28;20037;-54
2021/05/12 04:48:10;;;;;;;2.50;2.25;;;;;;;;;;5032114;28;20482;-53
2021/05/12 04:50:37;;;;;;;3.70;2.28;;;;;;;;;;5027785;28;20104;-52
2021/05/12 04:53:04;;;;;;;4.55;2.50;;;;;;;;;;5025022;28;20037;-53
2021/05/12 04:55:31;;;;;;;3.05;2.28;;;;;;;;;;5031518;28;20096;-53
2021/05/12 04:57:59;;;;;;;4.60;2.45;;;;;;;;;;5029029;28;20037;-52
2021/05/12 05:00:27;;;;;;;10.63;3.97;;;;;;;;;;5023000;28;20045;-53
2021/05/12 05:02:55;;;;;;;2.15;1.98;;;;;;;;;;5030852;28;20045;-52
2021/05/12 05:05:24;;;;;;;2.72;2.50;;;;;;;;;;5031394;28;20132;-53
2021/05/12 05:07:51;;;;;;;4.47;2.95;;;;;;;;;;5032086;28;20057;-53
2021/05/12 05:10:17;;;;;;;3.35;1.85;;;;;;;;;;5031553;28;20068;-53
2021/05/12 05:12:44;;;;;;;2.95;2.03;;;;;;;;;;5019139;28;20490;-53
2021/05/12 05:15:11;;;;;;;2.78;2.40;;;;;;;;;;5028834;28;20065;-52
2021/05/12 05:17:39;;;;;;;1.83;1.80;;;;;;;;;;5031175;28;20029;-53
2021/05/12 05:20:06;;;;;;;2.35;1.80;;;;;;;;;;5029085;28;20701;-53
2021/05/12 05:22:35;;;;;;;3.13;2.22;;;;;;;;;;5031300;28;20543;-52
2021/05/12 05:25:02;;;;;;;3.33;2.65;;;;;;;;;;5014395;28;20049;-52
2021/05/12 05:27:29;;;;;;;2.67;1.80;;;;;;;;;;5031542;28;20045;-54
2021/05/12 05:29:56;;;;;;;3.78;2.25;;;;;;;;;;5024041;28;20087;-55
2021/05/12 05:32:23;;;;;;;2.50;2.40;;;;;;;;;;5017005;28;20470;-54
2021/05/12 05:34:50;;;;;;;2.45;2.22;;;;;;;;;;5026913;28;20091;-55
2021/05/12 05:37:16;;;;;;;2.55;2.22;;;;;;;;;;5031072;28;20472;-54
2021/05/12 05:39:43;;;;;;;4.07;2.10;;;;;;;;;;5025493;28;20073;-55
2021/05/12 05:42:10;;;;;;;2.05;1.90;;;;;;;;;;5028817;28;20088;-55
2021/05/12 05:44:40;;;;;;;2.25;1.30;;;;;;;;;;5027367;28;20486;-55
2021/05/12 05:47:07;;;;;;;2.60;1.38;;;;;;;;;;5023964;28;20402;-55
2021/05/12 05:49:37;;;;;;;1.45;1.35;;;;;;;;;;5015218;28;20113;-54
2021/05/12 05:52:04;;;;;;;3.58;1.63;;;;;;;;;;5030706;28;20068;-55
2021/05/12 05:54:30;;;;;;;2.75;1.50;;;;;;;;;;5027791;28;20049;-54
2021/05/12 05:57:03;;;;;;;2.88;2.10;;;;;;;;;;5032123;28;20041;-55
2021/05/12 05:59:31;;;;;;;3.53;1.65;;;;;;;;;;5025183;28;20386;-54
2021/05/12 06:01:58;;;;;;;2.97;1.70;;;;;;;;;;5034780;28;20099;-55
2021/05/12 06:04:25;;;;;;;4.10;1.95;;;;;;;;;;5020870;28;20053;-55
2021/05/12 06:06:52;;;;;;;1.58;1.42;;;;;;;;;;5024318;28;21220;-55
2021/05/12 06:09:19;;;;;;;2.17;1.50;;;;;;;;;;5032030;28;20045;-55
2021/05/12 06:11:45;;;;;;;1.30;1.20;;;;;;;;;;5030098;28;20033;-55
2021/05/12 06:14:13;;;;;;;1.67;1.40;;;;;;;;;;5026036;28;20029;-54
2021/05/12 06:16:39;;;;;;;1.65;1.55;;;;;;;;;;5018194;28;20074;-55
2021/05/12 06:19:06;;;;;;;1.60;1.60;;;;;;;;;;5025063;28;20045;-55
2021/05/12 06:21:33;;;;;;;1.63;1.52;;;;;;;;;;5014531;28;20044;-55
2021/05/12 06:24:00;;;;;;;3.17;1.40;;;;;;;;;;5030421;28;20045;-55
2021/05/12 06:26:27;;;;;;;3.00;1.85;;;;;;;;;;5029669;28;20037;-55
2021/05/12 06:28:53;;;;;;;2.15;1.10;;;;;;;;;;5031595;28;20045;-55
2021/05/12 06:31:20;;;;;;;1.20;1.10;;;;;;;;;;5027903;28;20503;-54
2021/05/12 06:33:47;;;;;;;3.20;1.50;;;;;;;;;;5014586;28;20540;-55
2021/05/12 06:36:16;;;;;;;1.75;1.30;;;;;;;;;;5029649;28;20417;-55
2021/05/12 06:39:04;;;;;;;1.55;1.15;;;;;;;;;;5028002;28;20045;-54
2021/05/12 06:41:31;;;;;;;2.88;1.38;;;;;;;;;;5025391;28;20128;-55
2021/05/12 06:43:58;;;;;;;7.13;1.25;;;;;;;;;;5023913;28;20042;-55
2021/05/12 06:46:25;;;;;;;2.67;1.10;;;;;;;;;;5024324;28;20053;-54
2021/05/12 06:48:52;;;;;;;5.15;1.73;;;;;;;;;;5030814;28;20085;-55
2021/05/12 06:51:19;;;;;;;8.18;1.00;;;;;;;;;;5028862;28;20061;-54
2021/05/12 06:53:46;;;;;;;1.30;1.20;;;;;;;;;;5029663;28;20049;-54
2021/05/12 06:56:14;;;;;;;14.40;1.60;;;;;;;;;;5022482;28;20022;-53
2021/05/12 06:58:42;;;;;;;3.63;1.50;;;;;;;;;;5018914;28;20049;-54
2021/05/12 07:01:09;;;;;;;12.57;1.75;;;;;;;;;;5026085;28;20049;-53
2021/05/12 07:03:36;;;;;;;1.52;1.02;;;;;;;;;;5025075;28;20042;-55
2021/05/12 07:06:03;;;;;;;3.65;1.30;;;;;;;;;;5015158;28;20038;-55
2021/05/12 07:08:31;;;;;;;2.50;1.00;;;;;;;;;;5020509;28;20399;-54
2021/05/12 07:10:58;;;;;;;2.97;1.00;;;;;;;;;;5020582;28;20069;-54
2021/05/12 07:13:24;;;;;;;1.48;1.42;;;;;;;;;;5029933;28;20042;-54
2021/05/12 07:15:51;;;;;;;2.33;1.00;;;;;;;;;;5026416;28;20037;-54
2021/05/12 07:18:18;;;;;;;6.95;1.35;;;;;;;;;;5029307;28;20029;-53
2021/05/12 07:20:45;;;;;;;1.73;1.30;;;;;;;;;;5020101;28;20064;-54
2021/05/12 07:23:22;;;;;;;3.10;1.25;;;;;;;;;;5019504;28;20037;-55
2021/05/12 07:25:50;;;;;;;3.67;1.08;;;;;;;;;;5012903;28;20576;-54
2021/05/12 07:28:17;;;;;;;3.63;1.33;;;;;;;;;;5027467;28;20041;-53
2021/05/12 07:30:44;;;;;;;6.00;1.10;;;;;;;;;;5025139;28;20084;-54
2021/05/12 07:33:11;;;;;;;3.22;1.10;;;;;;;;;;5029656;28;20037;-54
2021/05/12 07:35:38;;;;;;;0.90;0.90;;;;;;;;;;5027037;28;20034;-54
2021/05/12 07:38:05;;;;;;;1.58;1.10;;;;;;;;;;5028504;28;20060;-54
2021/05/12 07:40:34;;;;;;;3.60;0.95;;;;;;;;;;5021071;28;20041;-54
2021/05/12 07:43:03;;;;;;;1.17;1.00;;;;;;;;;;5018366;28;20519;-53
2021/05/12 07:45:30;;;;;;;1.00;0.98;;;;;;;;;;5027687;28;20045;-54
2021/05/12 07:48:05;;;;;;;2.80;1.00;;;;;;;;;;5023946;28;20098;-54
2021/05/12 07:50:32;;;;;;;3.17;1.50;;;;;;;;;;5013791;28;20069;-54
2021/05/12 07:53:00;;;;;;;3.78;0.90;;;;;;;;;;5027964;28;20045;-53
2021/05/12 07:55:28;;;;;;;2.95;2.00;;;;;;;;;;5027635;28;20088;-54
2021/05/12 07:57:55;;;;;;;5.43;1.08;;;;;;;;;;5030191;28;20479;-54
2021/05/12 08:00:22;;;;;;;8.32;1.00;;;;;;;;;;5023749;28;20053;-54
2021/05/12 08:02:50;;;;;;;1.60;0.90;;;;;;;;;;5015798;28;20182;-54
2021/05/12 08:05:16;;;;;;;2.60;1.10;;;;;;;;;;5029571;28;20041;-54
2021/05/12 08:07:44;;;;;;;2.33;0.90;;;;;;;;;;5026706;28;20033;-54
2021/05/12 08:10:11;;;;;;;0.95;0.90;;;;;;;;;;5029820;28;20037;-61
2021/05/12 08:12:38;;;;;;;6.03;1.20;;;;;;;;;;5027523;28;20052;-55
2021/05/12 08:15:05;;;;;;;3.97;0.90;;;;;;;;;;5029315;28;20493;-54
2021/05/12 08:17:32;;;;;;;5.38;1.45;;;;;;;;;;5016826;28;20045;-54
2021/05/12 08:20:00;;;;;;;1.73;1.10;;;;;;;;;;5022816;28;20055;-53
2021/05/12 08:22:27;;;;;;;1.00;0.90;;;;;;;;;;5025941;28;20041;-55
2021/05/12 08:24:54;;;;;;;2.60;1.08;;;;;;;;;;5028131;28;20536;-54
2021/05/12 08:27:21;;;;;;;8.38;1.10;;;;;;;;;;5027024;28;20080;-55
2021/05/12 08:29:48;;;;;;;1.20;1.00;;;;;;;;;;5016102;28;20134;-54
2021/05/12 08:32:16;;;;;;;1.25;1.15;;;;;;;;;;5024423;28;20048;-54
2021/05/12 08:34:43;;;;;;;6.35;1.00;;;;;;;;;;5011528;28;20121;-53
2021/05/12 08:37:11;;;;;;;1.58;0.95;;;;;;;;;;5022530;28;20307;-54
2021/05/12 08:39:38;;;;;;;2.55;1.20;;;;;;;;;;5018462;28;20038;-55
2021/05/12 08:42:06;;;;;;;2.33;1.17;;;;;;;;;;5029345;28;20042;-53
2021/05/12 08:44:33;;;;;;;1.63;1.13;;;;;;;;;;5025047;28;20037;-55
2021/05/12 08:47:01;;;;;;;2.35;1.20;;;;;;;;;;5016736;28;20080;-53
2021/05/12 08:49:28;;;;;;;6.20;1.23;;;;;;;;;;5024039;28;20050;-54
2021/05/12 08:51:55;;;;;;;4.68;1.52;;;;;;;;;;5028717;28;20056;-54
2021/05/12 08:54:22;;;;;;;3.33;0.95;;;;;;;;;;5016854;28;20088;-54
2021/05/12 08:56:49;;;;;;;3.42;1.30;;;;;;;;;;5026686;28;20467;-54
2021/05/12 08:59:17;;;;;;;4.38;1.10;;;;;;;;;;5018830;28;20029;-54
2021/05/12 09:01:43;;;;;;;1.88;1.15;;;;;;;;;;5032228;28;20050;-54
2021/05/12 09:04:11;;;;;;;3.60;1.00;;;;;;;;;;5031363;28;20095;-53
2021/05/12 09:06:38;;;;;;;1.48;1.13;;;;;;;;;;5028375;28;22151;-54
2021/05/12 09:09:06;;;;;;;2.08;1.10;;;;;;;;;;5027096;28;20505;-53
2021/05/12 09:11:33;;;;;;;1.08;1.02;;;;;;;;;;5018766;28;20045;-54
2021/05/12 09:14:01;;;;;;;3.30;1.52;;;;;;;;;;5032844;28;20029;-55
2021/05/12 09:16:27;;;;;;;5.00;1.10;;;;;;;;;;5029230;28;20466;-53
2021/05/12 09:19:03;;;;;;;5.60;1.50;;;;;;;;;;5031843;28;20037;-54
2021/05/12 09:21:49;;;;;;;2.10;1.13;;;;;;;;;;5031344;28;20045;-54
2021/05/12 09:24:35;;;;;;;6.72;2.30;;;;;;;;;;5031507;28;20029;-53
2021/05/12 09:27:03;;;;;;;1.35;1.00;;;;;;;;;;5013423;28;20034;-52
2021/05/12 09:29:41;;;;;;;3.72;1.13;;;;;;;;;;5025561;28;20040;-54
2021/05/12 09:32:16;;;;;;;2.80;1.02;;;;;;;;;;5023598;28;20060;-53
2021/05/12 09:35:03;;;;;;;5.35;0.95;;;;;;;;;;5016320;28;20049;-54
2021/05/12 09:37:30;;;;;;;2.42;1.10;;;;;;;;;;5025268;28;20128;-54
2021/05/12 09:39:59;;;;;;;3.88;0.90;;;;;;;;;;5018204;28;20056;-54
2021/05/12 09:42:26;;;;;;;2.88;0.93;;;;;;;;;;5031768;28;20034;-53
2021/05/12 09:45:11;;;;;;;1.05;0.98;;;;;;;;;;5029022;28;20068;-53
2021/05/12 09:47:38;;;;;;;1.02;0.90;;;;;;;;;;5031106;28;20049;-53
2021/05/12 09:50:16;;;;;;;5.13;0.93;;;;;;;;;;5023636;28;20050;-54
2021/05/12 09:52:44;;;;;;;1.00;1.00;;;;;;;;;;5030270;28;20088;-54
2021/05/12 09:55:11;;;;;;;1.67;0.90;;;;;;;;;;5030744;28;20045;-54
2021/05/12 09:57:56;;;;;;;4.15;0.93;;;;;;;;;;5029179;28;20030;-54
2021/05/12 10:00:26;;;;;;;1.70;0.95;;;;;;;;;;5027976;28;20045;-55
2021/05/12 10:02:54;;;;;;;1.27;0.90;;;;;;;;;;5016221;28;20046;-55
2021/05/12 10:05:21;;;;;;;2.05;1.00;;;;;;;;;;5029576;28;20091;-54
2021/05/12 10:07:52;;;;;;;2.80;1.00;;;;;;;;;;5026803;28;20398;-52
2021/05/12 10:10:35;;;;;;;1.48;1.00;;;;;;;;;;5019993;28;20045;-54
2021/05/12 10:13:02;;;;;;;3.60;0.88;;;;;;;;;;5021758;28;20038;-52
2021/05/12 10:15:29;;;;;;;5.82;2.08;;;;;;;;;;5029378;28;20065;-53
2021/05/12 10:17:56;;;;;;;3.45;1.20;;;;;;;;;;5030849;28;20124;-54
2021/05/12 10:20:22;;;;;;;2.47;0.90;;;;;;;;;;5028767;28;20045;-54
2021/05/12 10:22:49;;;;;;;7.30;1.35;;;;;;;;;;5021508;28;20467;-54
2021/05/12 10:25:16;;;;;;;3.05;1.10;;;;;;;;;;5024362;28;20469;-54
2021/05/12 10:27:43;;;;;;;3.33;1.17;;;;;;;;;;5030209;28;20474;-54
2021/05/12 10:30:10;;;;;;;3.03;1.10;;;;;;;;;;5029993;28;20116;-54
2021/05/12 10:32:43;;;;;;;3.15;0.90;;;;;;;;;;5027959;28;20056;-55
2021/05/12 10:35:11;;;;;;;4.00;1.00;;;;;;;;;;5019781;28;20035;-54
2021/05/12 10:37:39;;;;;;;2.85;1.52;;;;;;;;;;5028042;28;20052;-54
2021/05/12 10:40:14;;;;;;;2.35;1.08;;;;;;;;;;5014461;28;20041;-54
2021/05/12 10:42:50;;;;;;;2.90;0.90;;;;;;;;;;5029190;28;20410;-54
2021/05/12 10:45:38;;;;;;;2.55;0.90;;;;;;;;;;5026264;28;20045;-54
2021/05/12 10:48:05;;;;;;;4.30;1.30;;;;;;;;;;5025440;28;20037;-54
2021/05/12 10:51:01;;;;;;;8.05;1.08;;;;;;;;;;5029008;28;20544;-54
2021/05/12 10:53:29;;;;;;;3.13;0.90;;;;;;;;;;5026396;28;20064;-54
2021/05/12 10:55:59;;;;;;;5.60;1.15;;;;;;;;;;4995631;28;20048;-54
2021/05/12 10:58:29;;;;;;;3.90;1.73;;;;;;;;;;5030271;28;20140;-52
2021/05/12 11:01:01;;;;;;;1.38;0.90;;;;;;;;;;5036205;28;20050;-54
2021/05/12 11:03:47;;;;;;;4.22;1.23;;;;;;;;;;5027184;28;20588;-54
2021/05/12 11:06:14;;;;;;;3.35;1.27;;;;;;;;;;5027605;28;20057;-54
2021/05/12 11:09:00;;;;;;;5.55;1.00;;;;;;;;;;5026206;28;20045;-54
2021/05/12 11:11:26;;;;;;;6.68;1.75;;;;;;;;;;5012296;28;20049;-54
2021/05/12 11:14:11;;;;;;;2.15;0.93;;;;;;;;;;5020433;28;20038;-54
2021/05/12 11:16:58;;;;;;;3.92;1.20;;;;;;;;;;5023163;28;20398;-55
2021/05/12 11:19:35;;;;;;;1.65;0.98;;;;;;;;;;5024980;28;20045;-54
2021/05/12 11:22:22;;;;;;;3.55;1.00;;;;;;;;;;5025233;28;20045;-54
2021/05/12 11:24:53;;;;;;;3.38;0.95;;;;;;;;;;5028453;28;20049;-54
2021/05/12 11:33:03;;;;;;;4.88;0.98;;;;;;;;;;4977520;28;20038;-53
2021/05/12 11:35:31;;;;;;;7.45;1.00;;;;;;;;;;4955987;28;20158;-54
2021/05/12 11:37:58;;;;;;;13.57;1.58;;;;;;;;;;4964071;28;20054;-55
2021/05/12 11:40:30;;;;;;;3.80;0.90;;;;;;;;;;4955175;28;20121;-54
2021/05/12 11:42:57;;;;;;;5.00;1.48;;;;;;;;;;4967769;28;20050;-52
2021/05/12 11:45:24;;;;;;;5.43;1.00;;;;;;;;;;4966181;28;20054;-53
2021/05/12 11:48:02;;;;;;;1.55;0.95;;;;;;;;;;4984851;28;20054;-53
2021/05/12 11:50:30;;;;;;;4.28;1.10;;;;;;;;;;4966480;28;20059;-52
2021/05/12 11:52:57;;;;;;;6.95;2.22;;;;;;;;;;4966818;28;20117;-53
2021/05/12 11:55:25;;;;;;;4.05;1.52;;;;;;;;;;4968390;28;20050;-53
2021/05/12 11:57:53;;;;;;;4.50;1.10;;;;;;;;;;4967724;28;20039;-52
2021/05/12 12:00:22;;;;;;;5.65;1.00;;;;;;;;;;4968554;28;20351;-53
2021/05/12 12:02:55;;;;;;;2.28;1.05;;;;;;;;;;4962562;28;20182;-53
2021/05/12 12:05:22;;;;;;;2.65;1.25;;;;;;;;;;4959470;28;20150;-53
2021/05/12 12:07:49;;;;;;;4.05;1.00;;;;;;;;;;5025088;28;20053;-52
2021/05/12 12:10:17;;;;;;;4.38;1.00;;;;;;;;;;5027602;28;20394;-51
2021/05/12 12:12:55;;;;;;;2.22;1.13;;;;;;;;;;5013196;28;20037;-53
2021/05/12 12:15:22;;;;;;;2.78;1.00;;;;;;;;;;5018632;28;20030;-54
2021/05/12 12:17:51;;;;;;;3.08;1.00;;;;;;;;;;5020233;28;20038;-54
2021/05/12 12:20:17;;;;;;;4.53;0.88;;;;;;;;;;5028041;28;20832;-54
2021/05/12 12:22:48;;;;;;;4.93;0.90;;;;;;;;;;5032534;28;20048;-52
2021/05/12 12:25:16;;;;;;;2.42;0.70;;;;;;;;;;5027750;28;20529;-52
2021/05/12 12:27:43;;;;;;;4.10;0.90;;;;;;;;;;5037925;28;20049;-53
2021/05/12 12:30:14;;;;;;;3.90;0.95;;;;;;;;;;5035245;28;20034;-53
2021/05/12 12:32:41;;;;;;;6.03;0.98;;;;;;;;;;5015201;28;20061;-52
2021/05/12 12:35:08;;;;;;;3.30;0.80;;;;;;;;;;5032380;28;20402;-52
2021/05/12 12:37:37;;;;;;;3.92;0.70;;;;;;;;;;5031546;28;20500;-52
2021/05/12 12:40:07;;;;;;;2.95;0.95;;;;;;;;;;5027202;28;20435;-54
2021/05/12 12:42:44;;;;;;;4.45;1.00;;;;;;;;;;5028641;28;20044;-43
2021/05/12 12:45:13;;;;;;;5.85;1.05;;;;;;;;;;5043053;28;20037;-43
2021/05/12 12:47:40;;;;;;;4.68;0.80;;;;;;;;;;5030291;28;20092;-45
2021/05/12 12:50:08;;;;;;;3.60;0.90;;;;;;;;;;5029430;28;20042;-46
2021/05/12 12:52:39;;;;;;;2.22;1.00;;;;;;;;;;5025496;28;20636;-45
2021/05/12 12:55:09;;;;;;;1.38;1.17;;;;;;;;;;5031630;28;20037;-42
2021/05/12 12:57:45;;;;;;;2.58;0.90;;;;;;;;;;5031660;28;20034;-42
2021/05/12 13:00:18;;;;;;;4.25;0.90;;;;;;;;;;5032016;28;20049;-45
2021/05/12 13:02:57;;;;;;;2.25;0.80;;;;;;;;;;5027478;28;20509;-43
2021/05/12 13:05:29;;;;;;;2.08;0.80;;;;;;;;;;5018307;28;20053;-42
2021/05/12 13:08:11;;;;;;;1.98;1.23;;;;;;;;;;5031586;28;20034;-43
2021/05/12 13:10:55;;;;;;;2.53;0.88;;;;;;;;;;5027974;28;20041;-43
2021/05/12 13:13:30;;;;;;;2.60;0.85;;;;;;;;;;5017019;28;20046;-42
2021/05/12 13:15:57;;;;;;;5.45;1.10;;;;;;;;;;5021401;28;20506;-43
2021/05/12 13:18:25;;;;;;;1.35;0.80;;;;;;;;;;5022378;28;20620;-43
2021/05/12 13:20:52;;;;;;;3.08;0.80;;;;;;;;;;5031871;28;20038;-45
2021/05/12 13:23:24;;;;;;;3.97;1.05;;;;;;;;;;5025381;28;20092;-45
2021/05/12 13:25:55;;;;;;;0.70;0.70;;;;;;;;;;5019814;28;20520;-43
2021/05/12 13:28:26;;;;;;;1.80;0.88;;;;;;;;;;5018370;28;20041;-46
2021/05/12 13:30:53;;;;;;;2.95;0.82;;;;;;;;;;5026912;28;20121;-43
2021/05/12 13:33:23;;;;;;;2.42;0.75;;;;;;;;;;5012907;28;20414;-43
2021/05/12 13:35:50;;;;;;;4.50;1.10;;;;;;;;;;5031181;28;20048;-43
2021/05/12 13:38:18;;;;;;;1.55;0.70;;;;;;;;;;5025191;28;20064;-43
2021/05/12 13:40:46;;;;;;;1.52;0.70;;;;;;;;;;5032561;28;20068;-43
2021/05/12 13:43:14;;;;;;;2.78;0.70;;;;;;;;;;5026051;28;20049;-42
2021/05/12 13:45:40;;;;;;;3.13;0.80;;;;;;;;;;5016028;28;20437;-46
2021/05/12 13:48:10;;;;;;;1.20;0.60;;;;;;;;;;5030251;28;20041;-44
2021/05/12 13:50:39;;;;;;;4.35;0.70;;;;;;;;;;5028960;28;20045;-43
2021/05/12 13:55:42;;;;;;;2.03;0.80;;;;;;;;;;5030564;28;20072;-44
2021/05/12 14:03:54;;;;;;;4.40;1.42;;;;;;;;;;5024174;28;20073;-44
2021/05/12 14:06:27;;;;;;;2.35;0.80;;;;;;;;;;5020664;28;20052;-47
2021/05/12 14:08:56;;;;;;;2.47;0.77;;;;;;;;;;5021222;28;20049;-47
2021/05/12 14:11:27;;;;;;;3.45;0.70;;;;;;;;;;5029647;28;20045;-47
2021/05/12 14:14:09;;;;;;;1.02;0.70;;;;;;;;;;5012958;28;20042;-46
2021/05/12 14:19:03;;;;;;;2.85;0.80;;;;;;;;;;5029656;28;20064;-46
2021/05/12 14:21:29;;;;;;;2.17;0.73;;;;;;;;;;5012285;28;20033;-43
2021/05/12 14:23:56;;;;;;;3.22;2.28;;;;;;;;;;5024483;28;20038;-44
2021/05/12 14:26:43;;;;;;;1.23;0.90;;;;;;;;;;5021468;28;20042;-44
2021/05/12 14:29:15;;;;;;;5.18;1.10;;;;;;;;;;5031186;28;20053;-43
2021/05/12 14:31:42;;;;;;;4.05;0.70;;;;;;;;;;5029567;28;20083;-43
2021/05/12 14:34:09;;;;;;;1.58;0.80;;;;;;;;;;5028758;28;20052;-45
2021/05/12 14:36:36;;;;;;;2.28;0.70;;;;;;;;;;5020302;28;20041;-44
2021/05/12 14:39:05;;;;;;;3.03;1.02;;;;;;;;;;5027207;28;20572;-45
2021/05/12 14:41:33;;;;;;;2.88;0.80;;;;;;;;;;5019338;28;20513;-43
2021/05/12 14:44:00;;;;;;;2.63;0.80;;;;;;;;;;5027931;28;20033;-44
2021/05/12 14:46:28;;;;;;;2.97;1.20;;;;;;;;;;5029580;28;20046;-44
2021/05/12 14:48:55;;;;;;;2.78;0.93;;;;;;;;;;5017565;28;20111;-44
2021/05/12 14:51:24;;;;;;;1.80;0.70;;;;;;;;;;5023665;28;20076;-43
2021/05/12 14:53:55;;;;;;;2.20;0.70;;;;;;;;;;5012394;28;20041;-42
2021/05/12 15:04:48;;;;;;;4.60;0.80;;;;;;;;;;5028980;28;20060;-43
2021/05/12 15:07:14;;;;;;;3.45;0.80;;;;;;;;;;5027303;28;20041;-43
2021/05/12 15:09:41;;;;;;;5.57;1.10;;;;;;;;;;5024676;28;20044;-44
2021/05/12 15:12:08;;;;;;;5.68;1.00;;;;;;;;;;5025824;28;20045;-43
2021/05/12 15:14:35;;;;;;;1.75;0.85;;;;;;;;;;5016663;28;20060;-42
2021/05/12 15:17:02;;;;;;;3.92;0.90;;;;;;;;;;5018027;28;20065;-42
2021/05/12 15:19:30;;;;;;;1.45;0.80;;;;;;;;;;5022023;28;20068;-44